PWSweather.com
Personal Weather Stations
Station Observations
WISCHPK61
Green Bay Schmitt Park, Green Bay, WI 54311

Green Bay Schmitt ParkGreen Bay, WI 54311

Lat: 44.514277, Lon: -87.935067

Elevation: 735

Station Type: Acu Rite Pro Weather Center model 02032C

http://greenbayweathercam.com

High Low Average
Temperature 81.7°F27.6°C 65.5°F18.6°C 73.3°F22.9°C
Dew Point 81.4°F27.4°C 65.2°F18.4°C 73.0°F22.8°C
Winds 3.5 mph 5.6 kmh Calm Calm Calm SWCalm SW
Wind Gusts 3.5 mph5.6 kmh -- --
Humidity 99% 99% 99%
Pressure 29.29 in991.9 mb 29.23 in989.8 mb -
Precipitation 0.05 in1.3 mm - -
Hour Temp Dew Point Humidity Winds Wind Gusts Pressure Precip Precip Rate Daily Precip Total
12:00 AM 76.0°F24.4°C 75.7°F24.3°C 99% Calm Calm -- 29.26 in990.9 mb - 0.00 in0.0 mm 0.00 in0.0 mm
01:00 AM 74.9°F23.8°C 74.6°F23.7°C 99% 1.2 mph NNW1.9 kmh NNW 2.3 mph3.7 kmh 29.26 in990.9 mb - 0.00 in0.0 mm 0.00 in0.0 mm
02:00 AM 74.3°F23.5°C 74.0°F23.3°C 99% Calm Calm -- 29.27 in991.2 mb - 0.00 in0.0 mm 0.00 in0.0 mm
03:00 AM 72.0°F22.2°C 71.7°F22.1°C 99% Calm Calm -- 29.27 in991.2 mb - 0.00 in0.0 mm 0.00 in0.0 mm
04:00 AM 71.1°F21.7°C 70.8°F21.6°C 99% Calm Calm -- 29.24 in990.2 mb - 0.00 in0.0 mm 0.00 in0.0 mm
05:00 AM 70.9°F21.6°C 70.6°F21.4°C 99% Calm Calm -- 29.25 in990.5 mb - 0.00 in0.0 mm 0.00 in0.0 mm
06:00 AM 70.5°F21.4°C 70.2°F21.2°C 99% Calm Calm -- 29.27 in991.2 mb - 0.00 in0.0 mm 0.00 in0.0 mm
07:00 AM 70.2°F21.2°C 69.9°F21.1°C 99% Calm Calm -- 29.27 in991.2 mb - 0.00 in0.0 mm 0.00 in0.0 mm
08:00 AM 70.3°F21.3°C 70.0°F21.1°C 99% Calm Calm -- 29.28 in991.5 mb - 0.00 in0.0 mm 0.00 in0.0 mm
09:00 AM 71.3°F21.8°C 71.0°F21.7°C 99% Calm Calm -- 29.29 in991.9 mb - 0.00 in0.0 mm 0.00 in0.0 mm
10:00 AM 72.0°F22.2°C 71.7°F22.1°C 99% Calm Calm -- 29.28 in991.5 mb - 0.00 in0.0 mm 0.00 in0.0 mm
11:00 AM 73.2°F22.9°C 72.9°F22.7°C 99% Calm Calm -- 29.27 in991.2 mb - 0.00 in0.0 mm 0.00 in0.0 mm
12:00 PM 76.5°F24.7°C 76.2°F24.6°C 99% Calm Calm 1.2 mph1.9 kmh 29.27 in991.2 mb - 0.00 in0.0 mm 0.00 in0.0 mm
01:00 PM 78.1°F25.6°C 77.8°F25.4°C 99% Calm Calm -- 29.26 in990.9 mb - 0.00 in0.0 mm 0.00 in0.0 mm
02:00 PM 79.5°F26.4°C 79.2°F26.2°C 99% Calm Calm -- 29.26 in990.9 mb - 0.00 in0.0 mm 0.00 in0.0 mm
03:00 PM 79.5°F26.4°C 79.2°F26.2°C 99% 1.2 mph SSE1.9 kmh SSE 1.2 mph1.9 kmh 29.26 in990.9 mb - 0.00 in0.0 mm 0.00 in0.0 mm
04:00 PM 81.5°F27.5°C 81.2°F27.3°C 99% 2.3 mph S3.7 kmh S 3.5 mph5.6 kmh 29.24 in990.2 mb - 0.00 in0.0 mm 0.00 in0.0 mm
05:00 PM 81.7°F27.6°C 81.4°F27.4°C 99% Calm Calm -- 29.23 in989.8 mb - 0.00 in0.0 mm 0.00 in0.0 mm
06:00 PM 81.7°F27.6°C 81.4°F27.4°C 99% Calm Calm -- 29.24 in990.2 mb - 0.00 in0.0 mm 0.00 in0.0 mm
07:00 PM 75.8°F24.3°C 75.5°F24.2°C 99% 3.5 mph W5.6 kmh W 3.5 mph5.6 kmh 29.25 in990.5 mb - 0.00 in0.0 mm 0.00 in0.0 mm
08:00 PM 68.4°F20.2°C 68.1°F20.1°C 99% Calm Calm -- 29.24 in990.2 mb - 0.05 in1.3 mm 0.05 in1.3 mm
09:00 PM 66.9°F19.4°C 66.6°F19.2°C 99% Calm Calm -- 29.24 in990.2 mb - 0.01 in0.3 mm 0.05 in1.3 mm
10:00 PM 65.8°F18.8°C 65.5°F18.6°C 99% Calm Calm -- 29.26 in990.9 mb - 0.00 in0.0 mm 0.05 in1.3 mm
11:00 PM 65.5°F18.6°C 65.2°F18.4°C 99% Calm Calm -- 29.27 in991.2 mb - 0.00 in0.0 mm 0.05 in1.3 mm